createdAt,value
2018-11-21T00:00:08.161Z,17.31
2018-11-21T00:01:08.749Z,17.31
2018-11-21T00:02:09.312Z,17.30
2018-11-21T00:03:09.888Z,17.31
2018-11-21T00:04:10.473Z,17.38
2018-11-21T00:05:11.097Z,17.31
2018-11-21T00:06:11.761Z,17.33
2018-11-21T00:07:12.338Z,17.20
2018-11-21T00:08:12.964Z,17.19
2018-11-21T00:09:13.540Z,17.19
2018-11-21T00:10:14.115Z,17.08
2018-11-21T00:11:14.697Z,17.19
2018-11-21T00:12:15.310Z,17.27
2018-11-21T00:13:15.936Z,17.26
2018-11-21T00:14:16.513Z,17.24
2018-11-21T00:15:17.092Z,17.24
2018-11-21T00:16:17.668Z,17.22
2018-11-21T00:18:02.754Z,17.24
2018-11-21T00:19:03.329Z,17.24
2018-11-21T00:20:03.905Z,17.24
2018-11-21T00:21:04.482Z,17.20
2018-11-21T00:22:05.108Z,17.27
2018-11-21T00:23:05.729Z,17.27
2018-11-21T00:24:06.300Z,17.11
2018-11-21T00:25:06.926Z,17.19
2018-11-21T00:26:07.545Z,17.15
2018-11-21T00:27:08.122Z,17.20
2018-11-21T00:28:08.696Z,17.19
2018-11-21T00:29:09.271Z,17.19
2018-11-21T00:30:09.899Z,17.16
2018-11-21T00:31:10.714Z,17.27
2018-11-21T00:32:11.496Z,17.30
2018-11-21T00:33:12.067Z,17.33
2018-11-21T00:34:12.645Z,17.27
2018-11-21T00:35:13.270Z,17.34
2018-11-21T00:36:13.846Z,17.38
2018-11-21T00:37:14.422Z,17.31
2018-11-21T00:38:14.998Z,17.26
2018-11-21T00:40:00.093Z,17.36
2018-11-21T00:41:00.708Z,17.31
2018-11-21T00:42:01.287Z,17.41
2018-11-21T00:43:01.862Z,17.34
2018-11-21T00:44:02.437Z,17.38
2018-11-21T00:45:03.016Z,17.45
2018-11-21T00:46:03.591Z,17.44
2018-11-21T00:47:04.167Z,17.36
2018-11-21T00:48:04.742Z,17.41
2018-11-21T00:49:05.368Z,17.41
2018-11-21T00:50:05.945Z,17.36
2018-11-21T00:51:06.574Z,17.38
2018-11-21T00:52:07.144Z,17.29
2018-11-21T00:53:07.723Z,17.33
2018-11-21T00:54:08.339Z,17.34
2018-11-21T00:55:08.967Z,17.31
2018-11-21T00:56:09.544Z,17.33
2018-11-21T00:57:10.119Z,17.26
2018-11-21T00:58:10.695Z,17.24
2018-11-21T00:59:11.272Z,17.29
2018-11-21T01:00:11.858Z,17.30
2018-11-21T01:01:56.982Z,17.34
2018-11-21T01:02:57.558Z,17.36
2018-11-21T01:03:58.134Z,17.27
2018-11-21T01:04:58.714Z,17.36
2018-11-21T01:05:59.332Z,17.27
2018-11-21T01:06:59.904Z,17.34
2018-11-21T01:08:00.479Z,17.24
2018-11-21T01:09:01.054Z,17.29
2018-11-21T01:10:01.630Z,17.31
2018-11-21T01:11:02.253Z,17.33
2018-11-21T01:12:02.833Z,17.26
2018-11-21T01:13:03.452Z,17.36
2018-11-21T01:14:04.025Z,17.31
2018-11-21T01:15:04.650Z,17.29
2018-11-21T01:16:05.226Z,17.42
2018-11-21T01:17:05.810Z,17.36
2018-11-21T01:18:06.433Z,17.31
2018-11-21T01:19:07.005Z,17.34
2018-11-21T01:20:07.630Z,17.38
2018-11-21T01:21:08.156Z,17.33
2018-11-21T01:22:08.737Z,17.30
2018-11-21T01:23:53.820Z,17.34
2018-11-21T01:24:54.396Z,17.26
2018-11-21T01:25:54.971Z,17.26
2018-11-21T01:26:55.549Z,17.38
2018-11-21T01:27:56.124Z,17.24
2018-11-21T01:28:56.704Z,17.16
2018-11-21T01:29:57.276Z,17.11
2018-11-21T01:30:57.851Z,17.15
2018-11-21T01:31:58.482Z,17.14
2018-11-21T01:32:59.052Z,17.23
2018-11-21T01:33:59.673Z,17.23
2018-11-21T01:35:00.246Z,17.19
2018-11-21T01:36:00.837Z,17.19
2018-11-21T01:37:01.441Z,17.16
2018-11-21T01:38:02.065Z,17.15
2018-11-21T01:39:02.685Z,17.22
2018-11-21T01:40:03.261Z,17.22
2018-11-21T01:41:03.888Z,17.20
2018-11-21T01:42:04.512Z,17.16
2018-11-21T01:43:05.125Z,17.16
2018-11-21T01:44:05.699Z,17.08
2018-11-21T01:45:50.789Z,17.11
2018-11-21T01:46:51.365Z,17.04
2018-11-21T01:47:51.946Z,17.04
2018-11-21T01:48:52.523Z,17.06
2018-11-21T01:49:53.095Z,17.12
2018-11-21T01:50:53.713Z,17.02
2018-11-21T01:51:54.335Z,17.05
2018-11-21T01:52:54.912Z,17.08
2018-11-21T01:53:55.498Z,17.06
2018-11-21T01:54:56.065Z,17.14
2018-11-21T01:55:56.642Z,17.04
2018-11-21T01:56:57.215Z,17.16
2018-11-21T01:57:57.792Z,17.15
2018-11-21T01:58:58.418Z,17.19
2018-11-21T01:59:58.989Z,17.23
2018-11-21T02:00:59.564Z,17.22
2018-11-21T02:02:00.200Z,17.26
2018-11-21T02:03:00.769Z,17.15
2018-11-21T02:04:01.343Z,17.24
2018-11-21T02:05:01.919Z,17.33
2018-11-21T02:06:02.493Z,17.26
2018-11-21T02:07:47.587Z,17.30
2018-11-21T02:08:48.251Z,17.36
2018-11-21T02:09:48.889Z,17.26
2018-11-21T02:10:49.453Z,17.30
2018-11-21T02:11:50.028Z,17.33
2018-11-21T02:12:50.602Z,17.27
2018-11-21T02:13:51.180Z,17.29
2018-11-21T02:14:51.756Z,17.27
2018-11-21T02:15:52.334Z,17.29
2018-11-21T02:16:52.906Z,17.29
2018-11-21T02:17:53.482Z,17.23
2018-11-21T02:18:54.056Z,17.23
2018-11-21T02:19:54.682Z,17.26
2018-11-21T02:20:55.256Z,17.26
2018-11-21T02:21:55.840Z,17.23
2018-11-21T02:22:56.452Z,17.20
2018-11-21T02:23:57.028Z,17.20
2018-11-21T02:24:57.603Z,17.22
2018-11-21T02:25:58.230Z,17.14
2018-11-21T02:26:58.816Z,17.14
2018-11-21T02:27:59.385Z,17.15
2018-11-21T02:29:44.471Z,17.19
2018-11-21T02:30:45.098Z,17.20
2018-11-21T02:31:45.682Z,17.12
2018-11-21T02:32:46.248Z,17.15
2018-11-21T02:33:46.822Z,17.09
2018-11-21T02:34:47.397Z,17.24
2018-11-21T02:35:47.974Z,17.24
2018-11-21T02:36:48.591Z,17.26
2018-11-21T02:37:49.168Z,17.31
2018-11-21T02:38:49.745Z,17.24
2018-11-21T02:39:50.370Z,17.30
2018-11-21T02:40:50.945Z,17.30
2018-11-21T02:41:51.521Z,17.24
2018-11-21T02:42:52.136Z,17.30
2018-11-21T02:43:52.709Z,17.23
2018-11-21T02:44:53.336Z,17.22
2018-11-21T02:45:53.979Z,17.23
2018-11-21T02:46:54.630Z,17.22
2018-11-21T02:47:55.207Z,17.09
2018-11-21T02:48:55.784Z,17.09
2018-11-21T02:49:56.361Z,17.20
2018-11-21T02:51:41.449Z,17.22
2018-11-21T02:52:42.025Z,17.27
2018-11-21T02:53:42.600Z,17.27
2018-11-21T02:54:43.183Z,17.27
2018-11-21T02:55:43.794Z,17.22
2018-11-21T02:56:44.371Z,17.24
2018-11-21T02:57:44.947Z,17.30
2018-11-21T02:58:45.521Z,17.24
2018-11-21T02:59:46.097Z,17.24
2018-11-21T03:00:46.672Z,17.29
2018-11-21T03:01:47.247Z,17.23
2018-11-21T03:02:47.872Z,17.29
2018-11-21T03:03:48.450Z,17.31
2018-11-21T03:04:49.024Z,17.30
2018-11-21T03:05:49.600Z,17.27
2018-11-21T03:06:50.178Z,17.26
2018-11-21T03:07:50.802Z,17.31
2018-11-21T03:08:51.427Z,17.31
2018-11-21T03:09:52.005Z,17.38
2018-11-21T03:10:52.577Z,17.36
2018-11-21T03:11:53.153Z,17.41
2018-11-21T03:13:38.243Z,17.48
2018-11-21T03:14:38.819Z,17.46
2018-11-21T03:15:39.393Z,17.33
2018-11-21T03:16:39.971Z,17.29
2018-11-21T03:17:40.548Z,17.36
2018-11-21T03:18:41.121Z,17.39
2018-11-21T03:19:41.696Z,17.39
2018-11-21T03:20:42.332Z,17.36
2018-11-21T03:21:42.848Z,17.31
2018-11-21T03:22:43.426Z,17.31
2018-11-21T03:23:43.996Z,17.30
2018-11-21T03:24:44.621Z,17.34
2018-11-21T03:25:45.290Z,17.31
2018-11-21T03:26:45.864Z,17.34
2018-11-21T03:27:46.438Z,17.29
2018-11-21T03:28:47.065Z,17.30
2018-11-21T03:29:47.641Z,17.31
2018-11-21T03:30:48.222Z,17.31
2018-11-21T03:31:48.833Z,17.31
2018-11-21T03:32:49.412Z,17.30
2018-11-21T03:33:57.555Z,17.33
2018-11-21T03:35:35.075Z,17.36
2018-11-21T03:36:35.660Z,17.27
2018-11-21T03:37:36.229Z,17.33
2018-11-21T03:38:36.803Z,17.31
2018-11-21T03:39:37.377Z,17.36
2018-11-21T03:40:37.953Z,17.26
2018-11-21T03:41:38.580Z,17.30
2018-11-21T03:42:39.154Z,17.30
2018-11-21T03:43:39.737Z,17.30
2018-11-21T03:44:40.358Z,17.33
2018-11-21T03:45:40.930Z,17.36
2018-11-21T03:46:41.505Z,17.46
2018-11-21T03:47:42.137Z,17.30
2018-11-21T03:48:42.705Z,17.33
2018-11-21T03:49:43.281Z,17.27
2018-11-21T03:50:43.858Z,17.26
2018-11-21T03:51:44.434Z,17.27
2018-11-21T03:52:45.010Z,17.29
2018-11-21T03:53:45.585Z,17.27
2018-11-21T03:54:46.160Z,17.24
2018-11-21T03:55:46.739Z,17.27
2018-11-21T03:57:31.919Z,17.33
2018-11-21T03:58:32.494Z,17.31
2018-11-21T03:59:33.118Z,17.31
2018-11-21T04:00:33.693Z,17.29
2018-11-21T04:01:34.276Z,17.31
2018-11-21T04:02:34.843Z,17.38
2018-11-21T04:03:35.417Z,17.33
2018-11-21T04:04:36.043Z,17.34
2018-11-21T04:05:36.620Z,17.29
2018-11-21T04:06:37.200Z,17.36
2018-11-21T04:07:37.774Z,17.38
2018-11-21T04:08:42.500Z,17.33
2018-11-21T04:09:38.964Z,17.36
2018-11-21T04:10:39.537Z,17.30
2018-11-21T04:11:40.118Z,17.27
2018-11-21T04:12:40.779Z,17.33
2018-11-21T04:13:41.414Z,17.36
2018-11-21T04:14:41.980Z,17.31
2018-11-21T04:15:42.555Z,17.30
2018-11-21T04:16:43.131Z,17.23
2018-11-21T04:17:43.706Z,17.24
2018-11-21T04:19:28.795Z,17.26
2018-11-21T04:20:29.371Z,17.16
2018-11-21T04:21:29.947Z,17.24
2018-11-21T04:22:30.524Z,17.26
2018-11-21T04:23:31.100Z,17.12
2018-11-21T04:24:31.823Z,17.26
2018-11-21T04:25:32.398Z,17.11
2018-11-21T04:26:32.973Z,17.15
2018-11-21T04:27:33.560Z,17.24
2018-11-21T04:28:34.177Z,17.20
2018-11-21T04:29:34.748Z,17.08
2018-11-21T04:30:35.331Z,17.22
2018-11-21T04:31:35.909Z,17.19
2018-11-21T04:32:36.475Z,17.24
2018-11-21T04:33:37.050Z,17.15
2018-11-21T04:34:37.627Z,17.11
2018-11-21T04:35:38.203Z,17.19
2018-11-21T04:36:38.828Z,17.19
2018-11-21T04:37:39.405Z,17.23
2018-11-21T04:38:39.982Z,17.12
2018-11-21T04:39:40.561Z,17.15
2018-11-21T04:41:25.696Z,17.16
2018-11-21T04:42:26.271Z,17.20
2018-11-21T04:43:26.849Z,17.15
2018-11-21T04:44:27.433Z,17.09
2018-11-21T04:45:28.059Z,17.20
2018-11-21T04:46:28.624Z,17.19
2018-11-21T04:47:29.199Z,17.15
2018-11-21T04:48:29.775Z,17.08
2018-11-21T04:49:30.360Z,17.23
2018-11-21T04:50:30.928Z,17.24
2018-11-21T04:51:31.504Z,17.26
2018-11-21T04:52:32.092Z,17.11
2018-11-21T04:53:32.654Z,17.20
2018-11-21T04:54:33.227Z,17.11
2018-11-21T04:55:33.858Z,17.19
2018-11-21T04:56:34.432Z,17.12
2018-11-21T04:57:35.009Z,17.23
2018-11-21T04:58:35.594Z,17.27
2018-11-21T04:59:36.210Z,17.20
2018-11-21T05:00:36.787Z,17.12
2018-11-21T05:01:37.363Z,17.08
2018-11-21T05:03:22.460Z,17.19
2018-11-21T05:04:23.077Z,17.15
2018-11-21T05:05:23.653Z,17.15
2018-11-21T05:06:24.227Z,17.12
2018-11-21T05:07:24.802Z,17.04
2018-11-21T05:08:25.376Z,17.19
2018-11-21T05:09:25.951Z,17.06
2018-11-21T05:10:26.526Z,17.11
2018-11-21T05:11:27.103Z,17.15
2018-11-21T05:12:27.678Z,17.08
2018-11-21T05:13:28.256Z,17.14
2018-11-21T05:14:28.830Z,17.14
2018-11-21T05:15:29.407Z,17.01
2018-11-21T05:16:29.982Z,16.99
2018-11-21T05:17:30.649Z,17.12
2018-11-21T05:18:31.225Z,17.08
2018-11-21T05:19:31.852Z,17.04
2018-11-21T05:20:32.479Z,17.06
2018-11-21T05:21:33.054Z,17.06
2018-11-21T05:22:33.671Z,17.05
2018-11-21T05:23:34.248Z,17.02
2018-11-21T05:25:19.345Z,17.04
2018-11-21T05:26:19.915Z,17.05
2018-11-21T05:27:20.488Z,16.99
2018-11-21T05:28:21.064Z,17.05
2018-11-21T05:29:21.638Z,17.06
2018-11-21T05:30:22.214Z,17.02
2018-11-21T05:31:22.789Z,16.93
2018-11-21T05:32:23.365Z,17.02
2018-11-21T05:33:23.939Z,17.06
2018-11-21T05:34:24.567Z,17.06
2018-11-21T05:35:25.191Z,16.97
2018-11-21T05:36:25.766Z,17.06
2018-11-21T05:37:26.395Z,17.04
2018-11-21T05:38:26.973Z,17.05
2018-11-21T05:39:27.546Z,17.06
2018-11-21T05:40:28.126Z,17.05
2018-11-21T05:41:28.699Z,17.01
2018-11-21T05:42:29.276Z,16.93
2018-11-21T05:43:29.850Z,16.96
2018-11-21T05:44:31.391Z,16.93
2018-11-21T05:45:31.003Z,16.90
2018-11-21T05:47:16.092Z,16.90
2018-11-21T05:48:16.671Z,16.96
2018-11-21T05:49:17.243Z,16.93
2018-11-21T05:50:17.821Z,17.04
2018-11-21T05:51:18.396Z,16.91
2018-11-21T05:52:18.978Z,16.90
2018-11-21T05:53:19.596Z,16.90
2018-11-21T05:54:20.171Z,16.94
2018-11-21T05:55:20.897Z,16.91
2018-11-21T05:56:21.523Z,16.99
2018-11-21T05:57:22.099Z,17.01
2018-11-21T05:58:22.677Z,16.91
2018-11-21T05:59:23.291Z,16.93
2018-11-21T06:00:23.870Z,16.90
2018-11-21T06:01:24.444Z,16.99
2018-11-21T06:02:25.075Z,17.02
2018-11-21T06:03:25.647Z,16.97
2018-11-21T06:04:26.220Z,16.99
2018-11-21T06:05:26.796Z,16.94
2018-11-21T06:06:27.423Z,16.94
2018-11-21T06:07:27.990Z,16.89
2018-11-21T06:09:13.080Z,16.89
2018-11-21T06:10:13.706Z,17.01
2018-11-21T06:11:14.281Z,17.01
2018-11-21T06:12:14.856Z,16.94
2018-11-21T06:13:15.431Z,16.99
2018-11-21T06:14:16.013Z,16.93
2018-11-21T06:15:16.622Z,16.93
2018-11-21T06:16:17.268Z,16.94
2018-11-21T06:17:17.877Z,16.90
2018-11-21T06:18:18.453Z,16.87
2018-11-21T06:19:19.027Z,16.93
2018-11-21T06:20:19.605Z,16.91
2018-11-21T06:21:20.180Z,16.87
2018-11-21T06:22:20.755Z,16.93
2018-11-21T06:23:21.330Z,16.93
2018-11-21T06:24:21.906Z,16.94
2018-11-21T06:25:22.482Z,16.91
2018-11-21T06:26:23.057Z,16.87
2018-11-21T06:27:23.681Z,16.91
2018-11-21T06:28:24.266Z,16.90
2018-11-21T06:29:24.884Z,16.93
2018-11-21T06:31:10.072Z,16.91
2018-11-21T06:32:10.747Z,16.94
2018-11-21T06:33:11.421Z,16.90
2018-11-21T06:34:12.003Z,16.93
2018-11-21T06:35:12.573Z,16.97
2018-11-21T06:36:13.144Z,16.91
2018-11-21T06:37:13.718Z,16.90
2018-11-21T06:38:14.294Z,16.91
2018-11-21T06:39:14.920Z,16.96
2018-11-21T06:40:15.506Z,16.96
2018-11-21T06:41:16.070Z,16.96
2018-11-21T06:42:16.652Z,17.01
2018-11-21T06:43:17.219Z,16.96
2018-11-21T06:44:17.794Z,16.78
2018-11-21T06:45:18.369Z,16.89
2018-11-21T06:46:18.944Z,16.89
2018-11-21T06:47:19.572Z,16.91
2018-11-21T06:48:20.390Z,16.93
2018-11-21T06:49:20.963Z,16.86
2018-11-21T06:50:21.539Z,16.87
2018-11-21T06:51:22.167Z,16.90
2018-11-21T06:53:07.257Z,16.91
2018-11-21T06:54:07.834Z,16.91
2018-11-21T06:55:08.406Z,16.91
2018-11-21T06:56:08.982Z,16.87
2018-11-21T06:57:09.557Z,16.81
2018-11-21T06:58:10.132Z,16.86
2018-11-21T06:59:10.711Z,16.84
2018-11-21T07:00:11.282Z,16.81
2018-11-21T07:01:11.857Z,16.91
2018-11-21T07:02:12.431Z,16.90
2018-11-21T07:03:13.015Z,16.90
2018-11-21T07:04:13.629Z,16.97
2018-11-21T07:05:14.205Z,16.84
2018-11-21T07:06:14.780Z,16.87
2018-11-21T07:07:15.414Z,16.93
2018-11-21T07:08:15.980Z,16.90
2018-11-21T07:09:16.558Z,16.90
2018-11-21T07:10:17.134Z,16.89
2018-11-21T07:11:17.709Z,16.91
2018-11-21T07:12:18.337Z,16.86
2018-11-21T07:13:18.912Z,16.93
2018-11-21T07:15:04.008Z,16.83
2018-11-21T07:16:04.622Z,16.91
2018-11-21T07:17:05.196Z,16.87
2018-11-21T07:18:05.778Z,16.89
2018-11-21T07:19:06.351Z,16.81
2018-11-21T07:20:06.927Z,16.89
2018-11-21T07:21:07.502Z,16.83
2018-11-21T07:22:08.282Z,16.91
2018-11-21T07:23:08.854Z,16.83
2018-11-21T07:24:09.478Z,16.90
2018-11-21T07:25:10.055Z,16.87
2018-11-21T07:26:10.630Z,16.84
2018-11-21T07:27:11.206Z,16.84
2018-11-21T07:28:13.110Z,16.81
2018-11-21T07:29:12.453Z,16.86
2018-11-21T07:30:13.032Z,16.84
2018-11-21T07:31:13.610Z,16.86
2018-11-21T07:32:14.182Z,16.86
2018-11-21T07:33:14.756Z,16.79
2018-11-21T07:34:15.333Z,16.79
2018-11-21T07:35:18.096Z,16.83
2018-11-21T07:37:01.045Z,16.72
2018-11-21T07:38:01.627Z,16.71
2018-11-21T07:39:02.240Z,16.78
2018-11-21T07:40:02.815Z,16.83
2018-11-21T07:41:03.439Z,16.83
2018-11-21T07:42:04.012Z,16.81
2018-11-21T07:43:04.587Z,16.83
2018-11-21T07:44:05.212Z,16.89
2018-11-21T07:45:05.787Z,16.86
2018-11-21T07:46:06.373Z,16.79
2018-11-21T07:47:06.937Z,16.83
2018-11-21T07:48:07.512Z,16.83
2018-11-21T07:49:08.135Z,16.79
2018-11-21T07:50:08.712Z,16.81
2018-11-21T07:51:09.286Z,16.81
2018-11-21T07:52:09.864Z,16.75
2018-11-21T07:53:10.450Z,16.78
2018-11-21T07:54:11.016Z,16.71
2018-11-21T07:55:11.588Z,16.81
2018-11-21T07:56:12.164Z,16.81
2018-11-21T07:57:12.738Z,16.83
2018-11-21T07:58:57.895Z,16.79
2018-11-21T07:59:58.453Z,16.83
2018-11-21T08:00:59.025Z,16.75
2018-11-21T08:01:59.602Z,16.81
2018-11-21T08:03:00.225Z,16.71
2018-11-21T08:04:00.800Z,16.79
2018-11-21T08:05:01.416Z,16.78
2018-11-21T08:06:01.992Z,16.68
2018-11-21T08:07:02.660Z,16.71
2018-11-21T08:08:03.240Z,16.75
2018-11-21T08:09:03.859Z,16.79
2018-11-21T08:10:04.433Z,16.83
2018-11-21T08:11:05.010Z,16.84
2018-11-21T08:12:05.585Z,16.78
2018-11-21T08:13:06.159Z,16.78
2018-11-21T08:14:06.750Z,16.83
2018-11-21T08:15:08.125Z,16.81
2018-11-21T08:16:07.887Z,16.78
2018-11-21T08:17:08.513Z,16.69
2018-11-21T08:18:09.090Z,16.84
2018-11-21T08:19:09.728Z,16.84
2018-11-21T08:20:54.803Z,16.79
2018-11-21T08:21:55.379Z,16.90
2018-11-21T08:22:55.955Z,16.83
2018-11-21T08:23:56.532Z,16.83
2018-11-21T08:24:57.152Z,16.84
2018-11-21T08:25:57.728Z,16.83
2018-11-21T08:26:58.974Z,16.78
2018-11-21T08:27:58.954Z,16.78
2018-11-21T08:28:59.578Z,16.84
2018-11-21T08:30:00.174Z,16.83
2018-11-21T08:31:00.772Z,16.79
2018-11-21T08:32:01.346Z,16.83
2018-11-21T08:33:01.925Z,16.83
2018-11-21T08:34:02.497Z,16.84
2018-11-21T08:35:03.073Z,16.86
2018-11-21T08:36:03.699Z,16.81
2018-11-21T08:37:04.317Z,16.84
2018-11-21T08:38:04.897Z,16.86
2018-11-21T08:39:05.511Z,16.78
2018-11-21T08:40:06.090Z,16.86
2018-11-21T08:41:06.716Z,16.83
2018-11-21T08:42:51.806Z,16.93
2018-11-21T08:43:52.387Z,16.87
2018-11-21T08:44:52.957Z,16.83
2018-11-21T08:45:53.534Z,16.78
2018-11-21T08:46:54.104Z,16.78
2018-11-21T08:47:54.679Z,16.81
2018-11-21T08:48:55.257Z,16.79
2018-11-21T08:49:55.828Z,16.79
2018-11-21T08:50:56.403Z,16.86
2018-11-21T08:51:57.031Z,16.83
2018-11-21T08:52:57.611Z,16.78
2018-11-21T08:53:58.178Z,16.83
2018-11-21T08:54:58.754Z,16.83
2018-11-21T08:55:59.328Z,16.81
2018-11-21T08:56:59.903Z,16.81
2018-11-21T08:58:00.529Z,16.83
2018-11-21T08:59:01.156Z,16.83
2018-11-21T09:00:01.735Z,16.79
2018-11-21T09:01:02.306Z,16.81
2018-11-21T09:02:02.881Z,16.86
2018-11-21T09:03:03.457Z,16.89
2018-11-21T09:04:48.544Z,16.87
2018-11-21T09:05:49.119Z,16.83
2018-11-21T09:06:49.695Z,16.86
2018-11-21T09:07:50.329Z,16.89
2018-11-21T09:08:50.895Z,16.89
2018-11-21T09:09:51.468Z,16.90
2018-11-21T09:10:52.723Z,16.93
2018-11-21T09:11:52.618Z,16.91
2018-11-21T09:12:53.195Z,16.89
2018-11-21T09:13:53.770Z,16.87
2018-11-21T09:14:54.397Z,16.94
2018-11-21T09:15:54.971Z,16.93
2018-11-21T09:16:55.544Z,16.96
2018-11-21T09:17:56.118Z,16.99
2018-11-21T09:18:56.692Z,16.84
2018-11-21T09:19:57.268Z,16.97
2018-11-21T09:20:57.844Z,16.96
2018-11-21T09:21:59.225Z,16.91
2018-11-21T09:22:58.997Z,16.90
2018-11-21T09:23:59.574Z,16.99
2018-11-21T09:25:00.198Z,16.93
2018-11-21T09:26:45.287Z,17.04
2018-11-21T09:27:45.901Z,16.90
2018-11-21T09:28:46.440Z,16.89
2018-11-21T09:29:47.022Z,16.89
2018-11-21T09:30:47.645Z,16.89
2018-11-21T09:31:48.219Z,16.93
2018-11-21T09:32:48.845Z,16.89
2018-11-21T09:33:49.422Z,16.90
2018-11-21T09:34:50.005Z,16.94
2018-11-21T09:35:50.631Z,16.99
2018-11-21T09:36:51.190Z,16.94
2018-11-21T09:37:51.772Z,17.01
2018-11-21T09:38:52.341Z,17.02
2018-11-21T09:39:52.917Z,17.02
2018-11-21T09:40:53.490Z,17.05
2018-11-21T09:41:54.070Z,17.01
2018-11-21T09:42:54.645Z,17.05
2018-11-21T09:43:55.220Z,16.96
2018-11-21T09:44:55.795Z,17.11
2018-11-21T09:45:56.372Z,17.04
2018-11-21T09:46:57.002Z,17.01
2018-11-21T09:48:42.085Z,16.99
2018-11-21T09:49:42.660Z,16.94
2018-11-21T09:50:43.236Z,16.97
2018-11-21T09:51:43.823Z,16.97
2018-11-21T09:52:44.437Z,16.94
2018-11-21T09:53:45.010Z,16.90
2018-11-21T09:54:45.586Z,16.91
2018-11-21T09:55:46.259Z,16.90
2018-11-21T09:56:46.836Z,16.90
2018-11-21T09:57:52.461Z,16.90
2018-11-21T09:58:53.040Z,16.96
2018-11-21T09:59:53.610Z,16.84
2018-11-21T10:00:54.227Z,17.06
2018-11-21T10:01:54.850Z,16.94
2018-11-21T10:02:55.431Z,16.87
2018-11-21T10:03:58.874Z,16.91
2018-11-21T10:04:56.627Z,16.87
2018-11-21T10:05:57.201Z,16.87
2018-11-21T10:06:57.782Z,16.86
2018-11-21T10:07:58.357Z,16.79
2018-11-21T10:08:58.932Z,16.81
2018-11-21T10:10:44.024Z,16.81
2018-11-21T10:11:44.648Z,16.83
2018-11-21T10:12:45.222Z,16.81
2018-11-21T10:13:45.848Z,16.81
2018-11-21T10:14:46.424Z,16.79
2018-11-21T10:15:47.001Z,16.69
2018-11-21T10:16:47.628Z,16.61
2018-11-21T10:17:48.207Z,16.60
2018-11-21T10:18:48.777Z,16.64
2018-11-21T10:19:49.354Z,16.65
2018-11-21T10:20:49.971Z,16.65
2018-11-21T10:21:50.598Z,16.56
2018-11-21T10:22:51.181Z,16.64
2018-11-21T10:23:51.750Z,16.61
2018-11-21T10:24:52.329Z,16.68
2018-11-21T10:25:52.895Z,16.65
2018-11-21T10:26:53.475Z,16.58
2018-11-21T10:27:54.096Z,16.64
2018-11-21T10:28:54.676Z,16.64
2018-11-21T10:29:55.399Z,16.65
2018-11-21T10:30:55.974Z,16.58
2018-11-21T10:32:41.068Z,16.56
2018-11-21T10:33:41.641Z,16.51
2018-11-21T10:34:42.214Z,16.58
2018-11-21T10:35:42.791Z,16.57
2018-11-21T10:36:43.363Z,16.58
2018-11-21T10:37:43.938Z,16.56
2018-11-21T10:38:44.511Z,16.57
2018-11-21T10:39:45.087Z,16.58
2018-11-21T10:40:45.660Z,16.60
2018-11-21T10:41:46.285Z,16.58
2018-11-21T10:42:46.863Z,16.64
2018-11-21T10:43:47.435Z,16.64
2018-11-21T10:44:48.012Z,16.56
2018-11-21T10:45:48.587Z,16.43
2018-11-21T10:46:49.212Z,16.42
2018-11-21T10:47:49.839Z,16.39
2018-11-21T10:48:50.418Z,16.36
2018-11-21T10:49:50.991Z,16.31
2018-11-21T10:50:51.605Z,16.32
2018-11-21T10:51:52.182Z,16.35
2018-11-21T10:52:52.759Z,16.29
2018-11-21T10:54:37.847Z,16.29
2018-11-21T10:55:38.422Z,16.36
2018-11-21T10:56:38.997Z,16.33
2018-11-21T10:57:39.573Z,16.38
2018-11-21T10:58:40.147Z,16.41
2018-11-21T10:59:40.724Z,16.49
2018-11-21T11:00:41.299Z,16.47
2018-11-21T11:01:41.929Z,16.43
2018-11-21T11:02:42.482Z,16.50
2018-11-21T11:03:43.059Z,16.47
2018-11-21T11:04:43.685Z,16.46
2018-11-21T11:05:44.308Z,16.41
2018-11-21T11:06:44.935Z,16.39
2018-11-21T11:07:45.554Z,16.42
2018-11-21T11:08:46.128Z,16.42
2018-11-21T11:09:46.709Z,16.41
2018-11-21T11:10:47.283Z,16.49
2018-11-21T11:11:47.857Z,16.46
2018-11-21T11:12:48.435Z,16.53
2018-11-21T11:13:49.009Z,16.60
2018-11-21T11:14:49.584Z,16.53
2018-11-21T11:16:34.681Z,16.58
2018-11-21T11:17:35.248Z,16.64
2018-11-21T11:18:35.824Z,16.69
2018-11-21T11:19:36.401Z,16.61
2018-11-21T11:20:36.985Z,16.60
2018-11-21T11:21:37.550Z,16.58
2018-11-21T11:22:38.133Z,16.58
2018-11-21T11:23:38.698Z,16.58
2018-11-21T11:24:39.274Z,16.60
2018-11-21T11:25:39.900Z,16.60
2018-11-21T11:26:40.525Z,16.56
2018-11-21T11:27:41.150Z,16.68
2018-11-21T11:28:41.727Z,16.58
2018-11-21T11:29:42.305Z,16.61
2018-11-21T11:30:42.879Z,16.61
2018-11-21T11:31:43.464Z,16.64
2018-11-21T11:32:44.031Z,16.58
2018-11-21T11:33:44.605Z,16.58
2018-11-21T11:34:45.179Z,16.58
2018-11-21T11:35:45.757Z,16.60
2018-11-21T11:36:46.386Z,16.60
2018-11-21T11:38:31.473Z,16.65
2018-11-21T11:39:32.045Z,16.66
2018-11-21T11:40:32.622Z,16.65
2018-11-21T11:41:33.209Z,16.65
2018-11-21T11:42:33.774Z,16.68
2018-11-21T11:43:34.397Z,16.65
2018-11-21T11:44:34.969Z,16.58
2018-11-21T11:45:35.746Z,16.61
2018-11-21T11:46:36.322Z,16.65
2018-11-21T11:47:36.942Z,16.65
2018-11-21T11:48:42.569Z,16.64
2018-11-21T11:49:43.191Z,16.60
2018-11-21T11:50:43.819Z,16.60
2018-11-21T11:51:44.392Z,16.64
2018-11-21T11:52:44.967Z,16.60
2018-11-21T11:53:45.542Z,16.68
2018-11-21T11:54:46.123Z,16.60
2018-11-21T11:55:46.695Z,16.66
2018-11-21T11:56:47.309Z,16.71
2018-11-21T11:57:47.887Z,16.61
2018-11-21T11:58:48.463Z,16.60
2018-11-21T12:00:33.551Z,16.64
2018-11-21T12:01:34.127Z,16.58
2018-11-21T12:02:34.703Z,16.61
2018-11-21T12:03:35.330Z,16.60
2018-11-21T12:04:35.906Z,16.64
2018-11-21T12:05:36.569Z,16.69
2018-11-21T12:06:37.296Z,16.61
2018-11-21T12:07:37.881Z,16.74
2018-11-21T12:08:38.445Z,16.71
2018-11-21T12:09:39.026Z,16.72
2018-11-21T12:10:39.597Z,16.69
2018-11-21T12:11:40.171Z,16.69
2018-11-21T12:12:40.745Z,16.71
2018-11-21T12:13:41.320Z,16.65
2018-11-21T12:14:41.895Z,16.69
2018-11-21T12:15:42.471Z,16.74
2018-11-21T12:16:43.050Z,16.66
2018-11-21T12:17:43.667Z,16.74
2018-11-21T12:18:44.244Z,16.66
2018-11-21T12:19:44.822Z,16.72
2018-11-21T12:20:45.449Z,16.75
2018-11-21T12:22:30.541Z,16.81
2018-11-21T12:23:31.114Z,16.74
2018-11-21T12:24:31.738Z,16.86
2018-11-21T12:25:32.363Z,16.79
2018-11-21T12:26:32.941Z,16.83
2018-11-21T12:27:33.523Z,16.87
2018-11-21T12:28:34.132Z,16.87
2018-11-21T12:29:34.708Z,16.90
2018-11-21T12:30:35.389Z,16.78
2018-11-21T12:31:36.009Z,16.86
2018-11-21T12:32:39.260Z,16.84
2018-11-21T12:33:37.164Z,16.86
2018-11-21T12:34:37.785Z,16.72
2018-11-21T12:35:38.360Z,16.84
2018-11-21T12:36:38.935Z,16.83
2018-11-21T12:37:39.511Z,16.86
2018-11-21T12:38:40.097Z,16.84
2018-11-21T12:39:40.706Z,16.83
2018-11-21T12:40:41.282Z,16.84
2018-11-21T12:41:41.858Z,16.76
2018-11-21T12:42:42.439Z,16.76
2018-11-21T12:44:27.619Z,16.83
2018-11-21T12:45:28.194Z,16.69
2018-11-21T12:46:28.769Z,16.72
2018-11-21T12:47:29.346Z,16.66
2018-11-21T12:48:29.921Z,16.61
2018-11-21T12:49:30.547Z,16.64
2018-11-21T12:50:31.173Z,16.65
2018-11-21T12:51:31.753Z,16.64
2018-11-21T12:52:32.323Z,16.58
2018-11-21T12:53:32.897Z,16.60
2018-11-21T12:54:33.480Z,16.56
2018-11-21T12:55:34.045Z,16.65
2018-11-21T12:56:34.622Z,16.49
2018-11-21T12:57:35.196Z,16.50
2018-11-21T12:58:35.771Z,16.49
2018-11-21T12:59:36.352Z,16.42
2018-11-21T13:00:36.926Z,16.43
2018-11-21T13:01:37.501Z,16.47
2018-11-21T13:02:38.077Z,16.50
2018-11-21T13:03:38.704Z,16.53
2018-11-21T13:04:39.281Z,16.57
2018-11-21T13:06:24.622Z,16.57
2018-11-21T13:07:25.235Z,16.57
2018-11-21T13:08:25.859Z,16.64
2018-11-21T13:09:26.436Z,16.58
2018-11-21T13:10:27.011Z,16.65
2018-11-21T13:11:27.575Z,16.69
2018-11-21T13:12:28.150Z,16.66
2018-11-21T13:13:28.724Z,16.58
2018-11-21T13:14:29.302Z,16.64
2018-11-21T13:15:29.915Z,16.65
2018-11-21T13:16:30.499Z,16.57
2018-11-21T13:17:31.064Z,16.60
2018-11-21T13:18:31.640Z,16.58
2018-11-21T13:19:32.217Z,16.58
2018-11-21T13:20:32.793Z,16.66
2018-11-21T13:21:33.427Z,16.60
2018-11-21T13:22:34.045Z,16.61
2018-11-21T13:23:34.678Z,16.64
2018-11-21T13:24:35.285Z,16.65
2018-11-21T13:25:35.869Z,16.61
2018-11-21T13:26:36.436Z,16.65